Churchill Airport
CYYQ : rendu visible

Aérodrome :











RETROUVEZ-NOUS SUR...

 
LOGIN :

S'inscrire | Disclaimer

   EN    FR    IT 

 









Légende :    VFR   VFR Marginal   IFR   IFR Intensif   IFR Très Intensif
Visi : 
Plafond : 
>= 8 km
>= 3000ft
5 à 8 km
1000 à 3000 ft
1500m à 5 km
500 à 1000 ft
800 à 1500m
200 à 500 ft
< 800m
< 200 ft
Symboles :   Orages  Brouillard  Fortes neiges  Fortes précipitations  Vent > 20 kt






- Altitude de l'aérodrome : 94 ft
- Code IATA : YYQ


CYYQ - Churchill

DERNIER METAR :
  • 040300Z 10020G28KT 6SM -SN DRSN OVC009 M10/M11 A3024 RMK SC8 SLP245

METARs EXPIRÉS :
  • 040200Z 09022KT 6SM -SN DRSN OVC009 M10/M11 A3025 RMK SC8 SLP247
  • 040100Z 09021KT 4SM -SN BLSN OVC009 M09/M10 A3026 RMK SC8 SLP253

TAF AMD TAF CYYQ
Valide du 04 à 02h jusqu'au 05 à 00h UTC


040220Z 0402/0424 10020G30KT 6SM -SN BLSN OVC010
TEMPO 0402/0412 2SM -SN BLSN OVC007
PROB30 0406/0412 3/4SM -SN BLSN VV006
FM041200 09018G28KT 3/4SM -SN BLSN VV006
FM041600 09018G28KT 2SM -SN BLSN OVC010
FM042200 09018G28KT 5SM -SN OVC020 RMK NXT FCST BY 040600Z



MET'MAP, la Météo Aéronautique d'un coup d'oeil ! - Copyright ORBIFLY Décembre 2007 - Disclaimer

ORBIFLY MET'MAP TEAM :

Programmation & Développement : Alexandra Zaïnal
Sur une idée originale de : Baudouin d'Aumeries
Assistance à la programmation : Marc-Olivier Méhu
Soutien technique & logistique : Manuel Goepfert

Contact : metmap@orbifly.com




SOURCES & CREDITS :

   NOAA       Earth
Advisory